Osaka Car — 9V2190 — position and weather

sailwx.info

Track history (hours):
 
Tides and Currents Weather Stations Pressure Air Temp Water Temp Dewpoint Dewpoint Depression Visibility Wind Speed Wind Dir Waves Ship Positions

Osaka Car

Last reported at 2017-Nov-07 12:18 UTC. Time now 2017-Nov-19 12:31 UTC.
Position N 46°54' W 125°05'.
Warning: this ship's position is 12 days out of date.

Length 183 m; draft 8 m.

Type: Other ship. MMSI: 566997000.

Date/timePositionNaut miles runAvg speedWind from/ knotsBaromVisibWave heightAir tempDewpointWater temp
2017-Nov-07 12:18N 46°54' W 125°05'0 0.7
2017-Nov-07 12:00N 46°54' W 125°05'814.5
2017-Nov-07 11:28N 46°54' W 124°53'714.6
2017-Nov-07 11:01N 46°53' W 124°44'815.1
2017-Nov-07 10:31N 46°52' W 124°33'915.2
2017-Nov-07 09:54N 46°52' W 124°19'513.0
2017-Nov-07 09:30N 46°54' W 124°12'3 6.7
2017-Nov-07 09:00N 46°55' W 124°08'5 9.5
2017-Nov-07 08:30N 46°56' W 124°01'30 1.0
2017-Nov-06 02:30N 46°39' W 124°36'5 9.7
2017-Nov-06 02:00N 46°34' W 124°35'5 9.5
2017-Nov-06 01:30N 46°30' W 124°32'510.2
2017-Nov-06 01:00N 46°25' W 124°29'611.2
2017-Nov-06 00:30N 46°19' W 124°27'612.8
2017-Nov-06 00:00N 46°13' W 124°24'1121.7
2017-Nov-05 23:30N 46°03' W 124°22'2 4.3
2017-Nov-05 23:00N 46°00' W 124°22'713.2
2017-Nov-05 22:31N 45°54' W 124°23'612.6
2017-Nov-05 22:01N 45°47' W 124°23'612.5
2017-Nov-05 21:31N 45°41' W 124°24'612.3
2017-Nov-05 21:00N 45°35' W 124°24'712.4
2017-Nov-05 20:25N 45°28' W 124°24'512.7
2017-Nov-05 20:00N 45°22' W 124°24'612.6
2017-Nov-05 19:30N 45°16' W 124°24'38813.2
2017-Nov-04 14:04N 38°49' W 123°58'514.4
2017-Nov-04 13:44N 38°45' W 123°54'314.4
2017-Nov-04 13:30N 38°43' W 123°51'714.4
2017-Nov-04 13:00N 38°37' W 123°45'714.1
2017-Nov-04 12:30N 38°31' W 123°40'713.9
2017-Nov-04 12:00N 38°24' W 123°39'713.7
2017-Nov-04 11:30N 38°18' W 123°38'713.7
2017-Nov-04 11:00N 38°11' W 123°38'713.9
2017-Nov-04 10:30N 38°04' W 123°37'713.8
2017-Nov-04 10:00N 37°57' W 123°36'714.1
2017-Nov-04 09:30N 37°50' W 123°35'713.5
2017-Nov-04 09:00N 37°44' W 123°31'814.3
2017-Nov-04 08:28N 37°39' W 123°24'814.5
2017-Nov-04 07:57N 37°33' W 123°17'614.6
2017-Nov-04 07:30N 37°29' W 123°12'714.9
2017-Nov-04 07:00N 37°24' W 123°05'815.1
2017-Nov-04 06:30N 37°18' W 122°58'815.1
2017-Nov-04 06:01N 37°13' W 122°51'715.0
2017-Nov-04 05:30N 37°08' W 122°45'714.9
2017-Nov-04 05:00N 37°03' W 122°38'815.3
2017-Nov-04 04:30N 36°57' W 122°31'815.2
2017-Nov-04 04:00N 36°52' W 122°25'6115.4
2017-Nov-04 00:04N 35°57' W 121°53'115.7
2017-Nov-04 00:00N 35°56' W 121°53'2315.5
2017-Nov-03 22:33N 35°38' W 121°35'115.1
2017-Nov-03 22:30N 35°38' W 121°35'815.3
2017-Nov-03 22:00N 35°32' W 121°29'815.6
2017-Nov-03 21:30N 35°25' W 121°24'815.7
2017-Nov-03 21:00N 35°19' W 121°18'815.6
2017-Nov-03 20:30N 35°13' W 121°12'816.0
2017-Nov-03 20:01N 35°07' W 121°06'815.6
2017-Nov-03 19:30N 34°59' W 121°03'815.5
2017-Nov-03 19:00N 34°52' W 121°01'815.9
2017-Nov-03 18:30N 34°44' W 120°59'816.1
2017-Nov-03 18:01N 34°36' W 120°57'815.9
2017-Nov-03 17:30N 34°28' W 120°55'815.4
2017-Nov-03 17:00N 34°21' W 120°53'815.4
2017-Nov-03 16:30N 34°13' W 120°51'715.1
2017-Nov-03 16:01N 34°06' W 120°49'815.0
2017-Nov-03 15:30N 33°59' W 120°45'815.6
2017-Nov-03 15:00N 33°53' W 120°39'815.7
2017-Nov-03 14:31N 33°47' W 120°34'815.4
2017-Nov-03 14:00N 33°40' W 120°28'815.3
2017-Nov-03 13:30N 33°34' W 120°22'815.7
2017-Nov-03 13:00N 33°28' W 120°16'815.3
2017-Nov-03 12:30N 33°22' W 120°11'815.1
2017-Nov-03 12:00N 33°16' W 120°05'815.6
2017-Nov-03 11:30N 33°10' W 119°60'814.9
2017-Nov-03 10:57N 33°05' W 119°51'715.2
2017-Nov-03 10:30N 33°02' W 119°45'715.0
2017-Nov-03 10:01N 32°58' W 119°37'714.5
2017-Nov-03 09:30N 32°54' W 119°30'715.0
2017-Nov-03 09:00N 32°49' W 119°23'815.0
2017-Nov-03 08:29N 32°45' W 119°15'1114.8
2017-Nov-03 07:45N 32°39' W 119°04'415.1
2017-Nov-03 07:30N 32°37' W 119°01'714.3
2017-Nov-03 07:00N 32°35' W 118°53'915.1
2017-Nov-03 06:23N 32°35' W 118°42'2615.4
2017-Nov-03 04:44N 32°36' W 118°11'515.5
2017-Nov-03 04:25N 32°36' W 118°06'615.4
2017-Nov-03 04:00N 32°36' W 117°58'815.2
2017-Nov-03 03:30N 32°37' W 117°49'815.3
2017-Nov-03 03:00N 32°37' W 117°40'815.4
2017-Nov-03 02:30N 32°38' W 117°31'714.7
2017-Nov-03 02:00N 32°39' W 117°22'714.0
2017-Nov-03 01:30N 32°37' W 117°14'6 0.4
2017-Nov-02 12:06N 32°43' W 117°13'311.5
2017-Nov-02 11:52N 32°40' W 117°14'3 7.5
2017-Nov-02 11:27N 32°37' W 117°14'  
Track history (hours):
 
Tides and Currents Weather Stations Pressure Air Temp Water Temp Dewpoint Dewpoint Depression Visibility Wind Speed Wind Dir Waves Ship Positions

Osaka Car

Last reported at 2017-Nov-07 12:18 UTC. Time now 2017-Nov-19 12:31 UTC.
Position N 46°54' W 125°05'.
Warning: this ship's position is 12 days out of date.

Length 183 m; draft 8 m.

Type: Other ship. MMSI: 566997000.

Date/timePositionNaut miles runAvg speedWind from/ knotsBaromVisibWave heightAir tempDewpointWater temp
2017-Nov-07 12:18N 46°54' W 125°05'0 0.7
2017-Nov-07 12:00N 46°54' W 125°05'814.5
2017-Nov-07 11:28N 46°54' W 124°53'714.6
2017-Nov-07 11:01N 46°53' W 124°44'815.1
2017-Nov-07 10:31N 46°52' W 124°33'915.2
2017-Nov-07 09:54N 46°52' W 124°19'513.0
2017-Nov-07 09:30N 46°54' W 124°12'3 6.7
2017-Nov-07 09:00N 46°55' W 124°08'5 9.5
2017-Nov-07 08:30N 46°56' W 124°01'30 1.0
2017-Nov-06 02:30N 46°39' W 124°36'5 9.7
2017-Nov-06 02:00N 46°34' W 124°35'5 9.5
2017-Nov-06 01:30N 46°30' W 124°32'510.2
2017-Nov-06 01:00N 46°25' W 124°29'611.2
2017-Nov-06 00:30N 46°19' W 124°27'612.8
2017-Nov-06 00:00N 46°13' W 124°24'1121.7
2017-Nov-05 23:30N 46°03' W 124°22'2 4.3
2017-Nov-05 23:00N 46°00' W 124°22'713.2
2017-Nov-05 22:31N 45°54' W 124°23'612.6
2017-Nov-05 22:01N 45°47' W 124°23'612.5
2017-Nov-05 21:31N 45°41' W 124°24'612.3
2017-Nov-05 21:00N 45°35' W 124°24'712.4
2017-Nov-05 20:25N 45°28' W 124°24'512.7
2017-Nov-05 20:00N 45°22' W 124°24'612.6
2017-Nov-05 19:30N 45°16' W 124°24'38813.2
2017-Nov-04 14:04N 38°49' W 123°58'514.4
2017-Nov-04 13:44N 38°45' W 123°54'314.4
2017-Nov-04 13:30N 38°43' W 123°51'714.4
2017-Nov-04 13:00N 38°37' W 123°45'714.1
2017-Nov-04 12:30N 38°31' W 123°40'713.9
2017-Nov-04 12:00N 38°24' W 123°39'713.7
2017-Nov-04 11:30N 38°18' W 123°38'713.7
2017-Nov-04 11:00N 38°11' W 123°38'713.9
2017-Nov-04 10:30N 38°04' W 123°37'713.8
2017-Nov-04 10:00N 37°57' W 123°36'714.1
2017-Nov-04 09:30N 37°50' W 123°35'713.5
2017-Nov-04 09:00N 37°44' W 123°31'814.3
2017-Nov-04 08:28N 37°39' W 123°24'814.5
2017-Nov-04 07:57N 37°33' W 123°17'614.6
2017-Nov-04 07:30N 37°29' W 123°12'714.9
2017-Nov-04 07:00N 37°24' W 123°05'815.1
2017-Nov-04 06:30N 37°18' W 122°58'815.1
2017-Nov-04 06:01N 37°13' W 122°51'715.0
2017-Nov-04 05:30N 37°08' W 122°45'714.9
2017-Nov-04 05:00N 37°03' W 122°38'815.3
2017-Nov-04 04:30N 36°57' W 122°31'815.2
2017-Nov-04 04:00N 36°52' W 122°25'6115.4
2017-Nov-04 00:04N 35°57' W 121°53'115.7
2017-Nov-04 00:00N 35°56' W 121°53'2315.5
2017-Nov-03 22:33N 35°38' W 121°35'115.1
2017-Nov-03 22:30N 35°38' W 121°35'815.3
2017-Nov-03 22:00N 35°32' W 121°29'815.6
2017-Nov-03 21:30N 35°25' W 121°24'815.7
2017-Nov-03 21:00N 35°19' W 121°18'815.6
2017-Nov-03 20:30N 35°13' W 121°12'816.0
2017-Nov-03 20:01N 35°07' W 121°06'815.6
2017-Nov-03 19:30N 34°59' W 121°03'815.5
2017-Nov-03 19:00N 34°52' W 121°01'815.9
2017-Nov-03 18:30N 34°44' W 120°59'816.1
2017-Nov-03 18:01N 34°36' W 120°57'815.9
2017-Nov-03 17:30N 34°28' W 120°55'815.4
2017-Nov-03 17:00N 34°21' W 120°53'815.4
2017-Nov-03 16:30N 34°13' W 120°51'715.1
2017-Nov-03 16:01N 34°06' W 120°49'815.0
2017-Nov-03 15:30N 33°59' W 120°45'815.6
2017-Nov-03 15:00N 33°53' W 120°39'815.7
2017-Nov-03 14:31N 33°47' W 120°34'815.4
2017-Nov-03 14:00N 33°40' W 120°28'815.3
2017-Nov-03 13:30N 33°34' W 120°22'815.7
2017-Nov-03 13:00N 33°28' W 120°16'815.3
2017-Nov-03 12:30N 33°22' W 120°11'815.1
2017-Nov-03 12:00N 33°16' W 120°05'815.6
2017-Nov-03 11:30N 33°10' W 119°60'814.9
2017-Nov-03 10:57N 33°05' W 119°51'715.2
2017-Nov-03 10:30N 33°02' W 119°45'715.0
2017-Nov-03 10:01N 32°58' W 119°37'714.5
2017-Nov-03 09:30N 32°54' W 119°30'715.0
2017-Nov-03 09:00N 32°49' W 119°23'815.0
2017-Nov-03 08:29N 32°45' W 119°15'1114.8
2017-Nov-03 07:45N 32°39' W 119°04'415.1
2017-Nov-03 07:30N 32°37' W 119°01'714.3
2017-Nov-03 07:00N 32°35' W 118°53'915.1
2017-Nov-03 06:23N 32°35' W 118°42'2615.4
2017-Nov-03 04:44N 32°36' W 118°11'515.5
2017-Nov-03 04:25N 32°36' W 118°06'615.4
2017-Nov-03 04:00N 32°36' W 117°58'815.2
2017-Nov-03 03:30N 32°37' W 117°49'815.3
2017-Nov-03 03:00N 32°37' W 117°40'815.4
2017-Nov-03 02:30N 32°38' W 117°31'714.7
2017-Nov-03 02:00N 32°39' W 117°22'714.0
2017-Nov-03 01:30N 32°37' W 117°14'6 0.4
2017-Nov-02 12:06N 32°43' W 117°13'311.5
2017-Nov-02 11:52N 32°40' W 117°14'3 7.5
2017-Nov-02 11:27N 32°37' W 117°14'  

Dump ship's entire track history